Time;durP1;ratioP1;P1;durP2;ratioP2;P2;SDS_P1;SDS_P2;PMS_P1;PMS_P2;Temp;Humidity;BMP_temperature;BMP_pressure;BME280_temperature;BME280_humidity;BME280_pressure;Samples;Min_cycle;Max_cycle;Signal;HPM_P1;HPM_P2
2022/12/24 00:01:14;;;;;;;19.17;3.33;;;;;;;9.17;89.96;100534.84;5034103;28;20037;-81
2022/12/24 00:03:39;;;;;;;21.80;2.92;;;;;;;9.16;90.04;100540.06;5017847;28;20018;-82
2022/12/24 00:06:12;;;;;;;17.33;2.90;;;;;;;9.14;90.32;100545.31;5019797;28;20033;-82
2022/12/24 00:08:37;;;;;;;15.10;2.70;;;;;;;9.10;90.44;100543.66;5021784;28;20107;-81
2022/12/24 00:11:03;;;;;;;21.48;3.08;;;;;;;9.09;90.36;100552.34;5030902;28;20054;-82
2022/12/24 00:13:28;;;;;;;22.00;3.00;;;;;;;9.04;90.70;100554.22;5026029;28;20025;-82
2022/12/24 00:15:53;;;;;;;14.05;2.65;;;;;;;9.00;91.03;100558.59;5019741;28;20044;-81
2022/12/24 00:18:19;;;;;;;18.77;2.75;;;;;;;8.95;91.04;100553.53;5022908;28;20038;-81
2022/12/24 00:20:47;;;;;;;19.30;3.28;;;;;;;8.93;91.43;100563.09;5032700;28;20026;-82
2022/12/24 00:23:12;;;;;;;15.95;2.78;;;;;;;8.93;91.15;100565.69;5034030;28;20032;-81
2022/12/24 00:25:38;;;;;;;15.27;3.15;;;;;;;8.91;91.58;100572.63;5020899;28;20029;-81
2022/12/24 00:28:03;;;;;;;18.23;3.13;;;;;;;8.90;91.20;100570.09;5015134;28;20021;-82
2022/12/24 00:30:28;;;;;;;16.08;3.15;;;;;;;8.88;91.83;100564.91;5028841;28;20029;-81
2022/12/24 00:32:54;;;;;;;19.85;3.90;;;;;;;8.85;91.91;100570.22;5033945;28;20056;-81
2022/12/24 00:35:19;;;;;;;16.70;3.47;;;;;;;8.84;92.05;100578.88;5034661;28;20025;-82
2022/12/24 00:37:47;;;;;;;16.52;3.38;;;;;;;8.84;92.18;100585.78;5032895;28;20040;-82
2022/12/24 00:40:12;;;;;;;18.25;3.33;;;;;;;8.80;92.25;100578.06;5033227;28;20024;-82
2022/12/24 00:42:37;;;;;;;15.57;3.72;;;;;;;8.80;92.27;100585.84;5034591;28;20026;-82
2022/12/24 00:45:03;;;;;;;19.08;3.58;;;;;;;8.81;92.30;100586.72;5034049;28;20327;-82
2022/12/24 00:47:28;;;;;;;23.63;3.90;;;;;;;8.82;92.22;100596.22;5034426;28;20037;-81
2022/12/24 00:49:54;;;;;;;18.02;4.68;;;;;;;8.88;92.42;100610.78;5033048;28;20029;-82
2022/12/24 00:52:19;;;;;;;21.00;4.43;;;;;;;8.86;92.24;100603.03;5034473;28;20083;-81
2022/12/24 00:54:44;;;;;;;19.40;3.28;;;;;;;8.87;92.17;100609.94;5036429;28;20268;-81
2022/12/24 00:57:09;;;;;;;18.90;4.00;;;;;;;8.88;92.16;100605.59;5037550;28;20384;-82
2022/12/24 00:59:35;;;;;;;18.27;3.47;;;;;;;8.88;92.07;100619.41;5035578;28;20033;-82
2022/12/24 01:02:00;;;;;;;19.13;3.47;;;;;;;8.86;91.94;100629.00;5034249;28;20029;-82
2022/12/24 01:07:09;;;;;;;17.52;4.00;;;;;;;8.88;92.05;100637.56;5036466;28;20055;-82
2022/12/24 01:09:35;;;;;;;16.23;3.70;;;;;;;8.89;92.10;100633.25;5033177;28;20033;-82
2022/12/24 01:12:00;;;;;;;23.73;4.18;;;;;;;8.86;92.03;100638.50;5033977;28;20102;-81
2022/12/24 01:14:25;;;;;;;23.25;4.07;;;;;;;8.85;91.91;100631.59;5033707;28;20029;-82
2022/12/24 01:16:50;;;;;;;17.02;4.03;;;;;;;8.85;91.72;100637.66;5033916;28;20138;-81
2022/12/24 01:19:16;;;;;;;17.92;3.75;;;;;;;8.88;91.86;100642.75;5032583;28;20056;-81
2022/12/24 01:21:41;;;;;;;17.98;4.10;;;;;;;8.90;91.55;100640.13;5035492;28;20518;-82
2022/12/24 01:24:09;;;;;;;16.67;3.35;;;;;;;8.88;91.55;100642.75;5033703;28;20132;-82
2022/12/24 01:26:34;;;;;;;15.55;3.45;;;;;;;8.88;91.57;100634.13;5032767;28;20033;-81
2022/12/24 01:29:00;;;;;;;14.95;3.35;;;;;;;8.86;91.45;100644.56;5033389;28;20475;-82
2022/12/24 01:31:25;;;;;;;16.73;3.30;;;;;;;8.85;91.40;100654.94;5029390;28;20053;-81
2022/12/24 01:33:50;;;;;;;16.33;3.50;;;;;;;8.83;91.43;100665.38;5013910;28;20032;-82
2022/12/24 01:36:16;;;;;;;16.33;3.50;;;;;;;8.82;91.35;100674.03;5013867;28;20477;-82
2022/12/24 01:38:41;;;;;;;19.92;4.35;;;;;;;8.79;91.27;100664.59;5013758;28;20026;-82
2022/12/24 01:43:57;;;;;;;17.10;3.50;;;;;;;8.76;91.07;100674.16;5033966;28;20175;-82
2022/12/24 01:46:29;;;;;;;20.02;3.75;;;;;;;8.74;91.73;100671.59;5033315;28;20145;-81
2022/12/24 01:48:58;;;;;;;17.00;3.40;;;;;;;8.72;91.78;100668.19;5033622;28;20388;-82
2022/12/24 01:51:38;;;;;;;14.95;3.58;;;;;;;8.71;91.88;100676.00;5032121;28;20021;-81
2022/12/24 01:54:10;;;;;;;19.90;3.63;;;;;;;8.69;91.84;100680.38;5033297;28;20033;-82
2022/12/24 01:56:42;;;;;;;14.25;3.70;;;;;;;8.63;91.97;100678.72;5032377;28;20025;-82
2022/12/24 01:59:10;;;;;;;17.48;3.75;;;;;;;8.61;91.90;100681.38;5027490;28;20095;-81
2022/12/24 02:01:38;;;;;;;20.85;4.13;;;;;;;8.59;92.06;100684.88;5032403;28;20029;-81
2022/12/24 02:04:12;;;;;;;20.70;4.38;;;;;;;8.55;92.04;100688.41;5032649;28;20029;-81
2022/12/24 02:06:37;;;;;;;17.60;3.80;;;;;;;8.54;92.24;100690.13;5030619;28;20399;-81
2022/12/24 02:09:02;;;;;;;19.33;3.70;;;;;;;8.55;92.36;100702.22;5032685;28;20029;-81
2022/12/24 02:11:28;;;;;;;18.05;4.05;;;;;;;8.58;92.41;100701.31;5032530;28;20025;-81
2022/12/24 02:13:59;;;;;;;22.45;4.05;;;;;;;8.60;92.52;100705.59;5033015;28;20025;-81
2022/12/24 02:16:54;;;;;;;18.87;3.70;;;;;;;8.61;92.69;100694.34;5031389;28;20028;-81
2022/12/24 02:19:28;;;;;;;21.38;3.72;;;;;;;8.62;92.60;100708.16;5030389;28;20374;-81
2022/12/24 02:22:15;;;;;;;17.33;3.33;;;;;;;8.63;92.91;100708.13;5032345;28;20427;-81
2022/12/24 02:24:59;;;;;;;20.73;4.18;;;;;;;8.65;93.07;100708.94;5031492;28;20033;-81
2022/12/24 02:27:53;;;;;;;20.48;3.80;;;;;;;8.68;92.92;100713.22;5031345;28;20139;-81
2022/12/24 02:30:29;;;;;;;18.10;3.72;;;;;;;8.71;92.74;100705.38;5032531;28;20096;-81
2022/12/24 02:33:19;;;;;;;20.55;3.83;;;;;;;8.74;92.89;100714.81;5030686;28;20033;-81
2022/12/24 02:35:58;;;;;;;16.15;3.47;;;;;;;8.76;93.09;100718.25;5029636;28;20507;-82
2022/12/24 02:38:30;;;;;;;16.05;3.60;;;;;;;8.77;93.05;100715.63;5032048;28;20033;-82
2022/12/24 02:41:14;;;;;;;19.83;3.95;;;;;;;8.79;93.24;100718.19;5032024;28;20491;-81
2022/12/24 02:43:44;;;;;;;20.15;3.90;;;;;;;8.79;93.31;100726.84;5029985;28;20239;-82
2022/12/24 02:46:17;;;;;;;24.17;4.30;;;;;;;8.80;93.46;100722.50;5032006;28;20029;-81
2022/12/24 02:48:46;;;;;;;19.20;3.85;;;;;;;8.80;93.51;100720.75;5032245;28;20029;-81
2022/12/24 02:51:11;;;;;;;21.25;4.43;;;;;;;8.81;93.70;100732.81;5031314;28;20488;-82
2022/12/24 02:53:37;;;;;;;16.13;3.65;;;;;;;8.83;93.87;100729.34;5032566;28;20063;-82
2022/12/24 02:56:27;;;;;;;17.63;3.80;;;;;;;8.86;93.97;100726.69;5031907;28;20038;-82
2022/12/24 02:59:18;;;;;;;18.98;3.83;;;;;;;8.86;94.11;100727.56;5032579;28;20052;-82
2022/12/24 03:02:08;;;;;;;20.10;3.53;;;;;;;8.88;94.05;100737.91;5031551;28;20081;-82
2022/12/24 03:04:42;;;;;;;21.17;3.90;;;;;;;8.84;94.04;100739.72;5032094;28;20469;-81
2022/12/24 03:07:47;;;;;;;21.77;3.53;;;;;;;8.86;94.26;100732.75;5032192;28;20076;-81
2022/12/24 03:10:20;;;;;;;18.00;3.20;;;;;;;8.86;94.42;100732.75;5031159;28;20156;-82
2022/12/24 03:12:50;;;;;;;20.27;3.40;;;;;;;8.86;94.57;100727.56;5032687;28;20033;-82
2022/12/24 03:15:21;;;;;;;19.98;3.50;;;;;;;8.86;94.46;100737.94;5031694;28;20040;-82
2022/12/24 03:17:49;;;;;;;21.97;3.63;;;;;;;8.89;94.58;100735.25;5032981;28;20033;-82
2022/12/24 03:20:25;;;;;;;17.50;3.05;;;;;;;8.90;94.49;100739.56;5034421;28;20136;-82
2022/12/24 03:22:51;;;;;;;17.15;3.15;;;;;;;8.87;94.66;100734.47;5038085;28;20351;-81
2022/12/24 03:25:16;;;;;;;17.73;3.20;;;;;;;8.89;94.94;100732.66;5040699;28;20456;-82
2022/12/24 03:27:43;;;;;;;19.65;3.55;;;;;;;8.89;94.80;100740.44;5034566;28;20079;-82
2022/12/24 03:30:12;;;;;;;16.60;3.50;;;;;;;8.91;94.80;100741.28;5035312;28;20033;-81
2022/12/24 03:32:38;;;;;;;15.50;3.22;;;;;;;8.92;94.86;100735.19;5034647;28;20086;-81
2022/12/24 03:35:04;;;;;;;21.52;3.33;;;;;;;8.92;95.06;100737.81;5034650;28;20037;-80
2022/12/24 03:37:29;;;;;;;19.20;3.22;;;;;;;8.91;95.12;100741.28;5034881;28;20030;-82
2022/12/24 03:39:55;;;;;;;18.25;2.88;;;;;;;8.90;95.04;100739.56;5034902;28;20388;-82
2022/12/24 03:42:20;;;;;;;16.48;3.63;;;;;;;8.90;95.23;100739.56;5034319;28;20032;-81
2022/12/24 03:44:45;;;;;;;21.10;4.10;;;;;;;8.92;95.44;100747.34;5034995;28;20036;-82
2022/12/24 03:47:11;;;;;;;16.08;3.17;;;;;;;8.91;95.28;100745.63;5034984;28;20055;-82
2022/12/24 03:49:36;;;;;;;16.17;3.40;;;;;;;8.92;95.30;100742.16;5035035;28;20033;-81
2022/12/24 03:52:01;;;;;;;16.25;3.35;;;;;;;8.93;95.37;100749.03;5034594;28;20388;-81
2022/12/24 03:54:26;;;;;;;19.20;3.13;;;;;;;8.94;95.50;100748.16;5034760;28;20032;-81
2022/12/24 03:56:52;;;;;;;17.80;3.72;;;;;;;8.93;95.39;100749.88;5034109;28;20034;-82
2022/12/24 03:59:17;;;;;;;17.60;3.05;;;;;;;8.93;95.32;100754.25;5034470;28;20539;-82
2022/12/24 04:01:42;;;;;;;19.88;3.45;;;;;;;8.93;95.54;100756.84;5033952;28;20036;-82
2022/12/24 04:04:07;;;;;;;15.75;3.40;;;;;;;8.94;95.49;100763.72;5033646;28;20592;-81
2022/12/24 04:06:33;;;;;;;25.08;3.88;;;;;;;8.96;95.78;100759.38;5035080;28;20040;-82
2022/12/24 04:09:00;;;;;;;19.08;3.55;;;;;;;8.97;95.96;100755.84;5034542;28;20040;-82
2022/12/24 04:11:26;;;;;;;16.20;3.65;;;;;;;8.98;95.95;100761.91;5031820;28;20021;-81
2022/12/24 04:13:51;;;;;;;23.05;4.35;;;;;;;9.00;96.08;100760.16;5034443;28;20108;-82
2022/12/24 04:16:16;;;;;;;18.08;3.53;;;;;;;9.01;95.97;100756.69;5035918;28;20040;-81
2022/12/24 04:18:42;;;;;;;15.73;3.58;;;;;;;9.01;96.20;100761.88;5034595;28;20050;-82
2022/12/24 04:21:08;;;;;;;18.83;3.65;;;;;;;9.04;96.11;100780.81;5034807;28;20036;-81
2022/12/24 04:23:35;;;;;;;20.42;3.50;;;;;;;9.05;95.96;100779.09;5032862;28;20042;-82
2022/12/24 04:26:03;;;;;;;15.00;3.60;;;;;;;9.07;96.23;100780.75;5034614;28;20112;-81
2022/12/24 04:28:29;;;;;;;18.17;3.65;;;;;;;9.07;96.05;100777.28;5034014;28;20044;-81
2022/12/24 04:30:58;;;;;;;21.30;3.50;;;;;;;9.09;96.11;100788.50;5032555;28;20048;-81
2022/12/24 04:33:24;;;;;;;17.98;3.50;;;;;;;9.09;96.26;100780.72;5034645;28;20105;-82
2022/12/24 04:35:49;;;;;;;14.27;3.13;;;;;;;9.09;95.89;100780.72;5034077;28;20104;-81
2022/12/24 04:38:14;;;;;;;16.88;3.70;;;;;;;9.07;96.04;100785.94;5034000;28;20045;-81
2022/12/24 04:40:39;;;;;;;15.05;3.40;;;;;;;9.08;95.68;100787.66;5042422;28;20049;-81
2022/12/24 04:43:05;;;;;;;20.50;3.80;;;;;;;9.08;96.14;100786.78;5039856;28;20033;-82
2022/12/24 04:45:31;;;;;;;17.65;3.75;;;;;;;9.10;96.21;100792.81;5034898;28;20045;-81
2022/12/24 04:47:56;;;;;;;18.08;3.95;;;;;;;9.09;96.13;100797.16;5040560;28;20025;-82
2022/12/24 04:50:22;;;;;;;15.10;3.45;;;;;;;9.08;96.29;100798.03;5036778;28;20056;-82
2022/12/24 04:52:47;;;;;;;14.05;3.50;;;;;;;9.10;96.10;100798.00;5042769;28;20090;-81
2022/12/24 04:55:12;;;;;;;18.08;3.55;;;;;;;9.09;96.39;100797.16;5046699;28;20029;-81
2022/12/24 04:57:37;;;;;;;16.73;3.38;;;;;;;9.10;96.34;100798.00;5042178;28;20032;-81
2022/12/24 05:00:04;;;;;;;13.95;3.17;;;;;;;9.09;96.41;100796.28;5043493;28;20029;-81
2022/12/24 05:02:30;;;;;;;17.17;3.45;;;;;;;9.07;96.30;100798.06;5041716;28;20086;-81
2022/12/24 05:04:55;;;;;;;20.23;3.80;;;;;;;9.05;96.10;100795.50;5042545;28;20032;-81
2022/12/24 05:07:20;;;;;;;13.45;3.38;;;;;;;9.05;96.06;100799.84;5040927;28;20052;-81
2022/12/24 05:09:46;;;;;;;19.35;4.07;;;;;;;9.01;96.29;100808.56;5045437;28;20250;-81
2022/12/24 05:12:11;;;;;;;18.17;3.40;;;;;;;8.99;96.17;100805.16;5040924;28;20451;-82
2022/12/24 05:14:36;;;;;;;13.50;3.60;;;;;;;8.99;96.25;100810.34;5042812;28;20037;-81
2022/12/24 05:17:01;;;;;;;18.00;3.90;;;;;;;8.98;96.27;100809.47;5038591;28;20036;-81
2022/12/24 05:19:27;;;;;;;18.00;3.58;;;;;;;8.99;96.23;100818.13;5040551;28;20033;-81
2022/12/24 05:27:20;;;;;;;20.17;3.60;;;;;;;9.01;96.32;100806.81;5042247;28;20060;-81
2022/12/24 05:29:45;;;;;;;16.00;3.63;;;;;;;9.01;96.30;100808.56;5038772;28;20337;-82
2022/12/24 05:32:11;;;;;;;15.77;3.20;;;;;;;9.00;96.31;100797.31;5035405;28;20040;-81
2022/12/24 05:34:36;;;;;;;17.63;3.35;;;;;;;8.99;96.22;100799.97;5038603;28;20188;-81
2022/12/24 05:37:01;;;;;;;20.23;3.28;;;;;;;9.00;96.39;100801.66;5043081;28;20066;-82
2022/12/24 05:39:27;;;;;;;17.20;3.10;;;;;;;8.96;96.40;100804.31;5039018;28;20486;-82
2022/12/24 05:41:52;;;;;;;14.23;3.10;;;;;;;8.92;96.28;100800.06;5038519;28;20021;-81
2022/12/24 05:44:17;;;;;;;12.65;2.90;;;;;;;8.91;96.40;100807.91;5038670;28;20094;-82
2022/12/24 05:46:43;;;;;;;13.57;2.78;;;;;;;8.88;96.27;100808.78;5036994;28;20025;-81
2022/12/24 05:49:09;;;;;;;16.02;3.20;;;;;;;8.88;96.46;100820.91;5044275;28;20360;-81
2022/12/24 05:51:34;;;;;;;17.58;3.22;;;;;;;8.85;96.23;100811.47;5039937;28;20045;-81
2022/12/24 05:53:59;;;;;;;16.63;2.85;;;;;;;8.84;96.45;100814.06;5040400;28;20400;-82
2022/12/24 05:56:25;;;;;;;14.23;2.95;;;;;;;8.82;96.44;100824.50;5038618;28;20086;-81
2022/12/24 05:58:53;;;;;;;15.73;3.00;;;;;;;8.80;96.39;100826.25;5039207;28;20037;-81
2022/12/24 06:01:20;;;;;;;15.65;2.92;;;;;;;8.78;96.41;100841.88;5039676;28;20450;-81
2022/12/24 06:03:48;;;;;;;15.70;3.22;;;;;;;8.79;96.62;100848.75;5039998;28;20111;-82
2022/12/24 06:06:18;;;;;;;11.90;3.08;;;;;;;8.80;96.58;100836.63;5034574;28;20030;-81
2022/12/24 06:08:44;;;;;;;14.75;3.30;;;;;;;8.82;96.72;100847.84;5041576;28;20028;-81
2022/12/24 06:11:11;;;;;;;16.90;3.20;;;;;;;8.83;96.55;100846.09;5038677;28;20040;-81
2022/12/24 06:13:37;;;;;;;15.75;3.15;;;;;;;8.83;96.57;100846.09;5038890;28;20032;-81
2022/12/24 06:16:04;;;;;;;18.63;3.30;;;;;;;8.82;96.47;100850.44;5038051;28;20033;-81
2022/12/24 06:18:31;;;;;;;14.65;3.35;;;;;;;8.83;96.65;100857.34;5037498;28;20587;-81
2022/12/24 06:20:57;;;;;;;17.08;3.22;;;;;;;8.82;96.50;100853.03;5034570;28;21650;-81
2022/12/24 06:23:23;;;;;;;15.18;2.90;;;;;;;8.83;96.44;100856.47;5032169;28;20025;-81
2022/12/24 06:25:49;;;;;;;12.70;2.90;;;;;;;8.83;96.54;100861.66;5032491;28;20037;-82
2022/12/24 06:28:15;;;;;;;15.25;3.00;;;;;;;8.83;96.50;100846.97;5032285;28;20033;-81
2022/12/24 06:30:40;;;;;;;14.25;2.95;;;;;;;8.83;96.38;100841.78;5031192;28;20482;-82
2022/12/24 06:33:06;;;;;;;17.80;3.38;;;;;;;8.85;96.44;100855.56;5032110;28;20030;-81
2022/12/24 06:35:32;;;;;;;15.27;3.17;;;;;;;8.87;96.29;100858.13;5032215;28;20163;-81
2022/12/24 06:37:58;;;;;;;14.38;3.10;;;;;;;8.86;96.23;100861.59;5032493;28;20029;-81
2022/12/24 06:40:24;;;;;;;17.05;3.40;;;;;;;8.86;96.12;100862.47;5031342;28;20025;-82
2022/12/24 06:42:50;;;;;;;19.20;3.17;;;;;;;8.86;96.05;100877.16;5032522;28;20026;-81
2022/12/24 06:45:15;;;;;;;20.08;3.80;;;;;;;8.88;95.95;100886.63;5031052;28;20083;-81
2022/12/24 06:47:40;;;;;;;15.63;3.50;;;;;;;8.89;95.89;100885.75;5030795;28;20021;-81
2022/12/24 06:50:06;;;;;;;16.63;3.55;;;;;;;8.88;95.68;100886.63;5032606;28;20037;-81
2022/12/24 06:52:31;;;;;;;15.40;3.85;;;;;;;8.88;95.46;100891.81;5033042;28;20061;-82
2022/12/24 06:54:57;;;;;;;19.40;3.97;;;;;;;8.86;95.52;100890.13;5035499;28;20022;-81
2022/12/24 06:57:22;;;;;;;17.85;3.55;;;;;;;8.86;95.39;100888.41;5036643;28;20024;-81
2022/12/24 06:59:47;;;;;;;18.27;3.45;;;;;;;8.85;95.34;100889.28;5035404;28;20452;-81
2022/12/24 07:02:12;;;;;;;15.32;3.72;;;;;;;8.83;95.11;100888.47;5034355;28;20119;-81
2022/12/24 07:04:37;;;;;;;16.05;3.95;;;;;;;8.84;95.00;100889.31;5035684;28;20033;-81
2022/12/24 07:07:03;;;;;;;15.63;3.55;;;;;;;8.82;95.13;100889.34;5036237;28;20090;-81
2022/12/24 07:09:28;;;;;;;19.70;4.28;;;;;;;8.81;94.90;100896.25;5035217;28;20024;-81
2022/12/24 07:11:53;;;;;;;21.85;3.85;;;;;;;8.83;95.05;100903.16;5035857;28;20037;-82
2022/12/24 07:14:19;;;;;;;23.80;4.13;;;;;;;8.80;94.78;100894.53;5034820;28;20025;-81
2022/12/24 07:16:44;;;;;;;18.20;4.13;;;;;;;8.80;94.81;100896.28;5035779;28;20104;-81
2022/12/24 07:19:10;;;;;;;16.30;3.78;;;;;;;8.78;94.63;100908.44;5034352;28;20064;-81
2022/12/24 07:21:35;;;;;;;15.57;3.88;;;;;;;8.76;94.79;100907.59;5035467;28;20038;-81
2022/12/24 07:24:01;;;;;;;19.25;4.15;;;;;;;8.74;94.60;100909.34;5034828;28;20029;-81
2022/12/24 07:26:26;;;;;;;16.00;3.88;;;;;;;8.72;94.61;100900.75;5036944;28;20487;-81
2022/12/24 07:28:51;;;;;;;14.68;3.85;;;;;;;8.68;94.57;100909.47;5033677;28;20084;-81
2022/12/24 07:31:16;;;;;;;16.85;3.95;;;;;;;8.63;94.70;100907.81;5035731;28;20029;-81
2022/12/24 07:33:42;;;;;;;18.23;4.07;;;;;;;8.59;94.72;100913.94;5034423;28;20025;-81
2022/12/24 07:36:13;;;;;;;17.70;4.18;;;;;;;8.57;94.70;100927.81;5035220;28;20392;-81
2022/12/24 07:38:38;;;;;;;17.83;3.72;;;;;;;8.56;94.64;100932.13;5035211;28;20169;-82
2022/12/24 07:41:03;;;;;;;15.13;4.10;;;;;;;8.52;94.92;100940.84;5033971;28;20157;-82
2022/12/24 07:43:31;;;;;;;15.98;4.25;;;;;;;8.51;94.94;100944.31;5034674;28;20036;-82
2022/12/24 07:45:57;;;;;;;15.20;3.58;;;;;;;8.48;94.93;100944.38;5034365;28;20490;-82
2022/12/24 07:48:24;;;;;;;17.08;3.53;;;;;;;8.45;95.08;100944.38;5033468;28;20029;-81
2022/12/24 07:50:50;;;;;;;18.92;3.40;;;;;;;8.44;94.97;100953.03;5035472;28;20025;-81
2022/12/24 07:53:15;;;;;;;17.90;4.47;;;;;;;8.41;95.09;100947.88;5034966;28;20037;-81
2022/12/24 07:55:41;;;;;;;17.40;3.58;;;;;;;8.40;95.32;100956.53;5034128;28;20040;-81
2022/12/24 07:58:06;;;;;;;16.92;3.58;;;;;;;8.37;95.41;100956.59;5035833;28;20064;-81
2022/12/24 08:00:31;;;;;;;12.52;3.10;;;;;;;8.34;95.38;100963.56;5033835;28;20033;-81
2022/12/24 08:02:58;;;;;;;18.75;4.13;;;;;;;8.34;95.47;100975.63;5034797;28;20041;-81
2022/12/24 08:05:26;;;;;;;21.38;3.92;;;;;;;8.32;95.63;100975.66;5031975;28;20021;-81
2022/12/24 08:07:51;;;;;;;17.17;3.42;;;;;;;8.32;95.81;100983.44;5034652;28;20362;-82
2022/12/24 08:10:17;;;;;;;20.38;3.92;;;;;;;8.30;95.96;100987.78;5033189;28;20091;-81
2022/12/24 08:12:42;;;;;;;19.20;3.50;;;;;;;8.31;96.04;100989.50;5035046;28;20082;-81
2022/12/24 08:15:07;;;;;;;14.65;3.35;;;;;;;8.34;96.18;101005.03;5032920;28;20033;-81
2022/12/24 08:17:33;;;;;;;16.80;3.80;;;;;;;8.35;95.96;101011.94;5034058;28;20193;-82
2022/12/24 08:19:58;;;;;;;18.27;3.30;;;;;;;8.37;96.03;101013.66;5034092;28;20049;-81
2022/12/24 08:22:23;;;;;;;18.13;3.50;;;;;;;8.34;96.15;101010.22;5034264;28;20033;-81
2022/12/24 08:24:49;;;;;;;14.52;3.45;;;;;;;8.39;96.17;101027.41;5033137;28;20392;-81
2022/12/24 08:27:14;;;;;;;15.82;3.20;;;;;;;8.38;96.10;101017.91;5033222;28;20096;-81
2022/12/24 08:29:39;;;;;;;18.25;4.07;;;;;;;8.38;96.12;101029.16;5034113;28;20036;-81
2022/12/24 08:32:04;;;;;;;19.98;3.33;;;;;;;8.37;96.29;101019.66;5034496;28;20025;-81
2022/12/24 08:34:30;;;;;;;18.75;3.83;;;;;;;8.37;96.30;101024.00;5030570;28;20060;-81
2022/12/24 08:36:55;;;;;;;13.50;3.22;;;;;;;8.37;96.34;101022.25;5034579;28;20116;-81
2022/12/24 08:39:20;;;;;;;19.17;3.45;;;;;;;8.39;96.30;101037.78;5034006;28;20029;-82
2022/12/24 08:41:46;;;;;;;15.20;3.47;;;;;;;8.40;96.30;101021.34;5021997;28;20410;-81
2022/12/24 08:44:11;;;;;;;20.75;3.58;;;;;;;8.40;96.50;101026.53;5033463;28;20391;-81
2022/12/24 08:46:36;;;;;;;16.75;3.15;;;;;;;8.42;96.47;101024.78;5034071;28;20033;-80
2022/12/24 08:49:01;;;;;;;15.38;3.28;;;;;;;8.41;96.52;101031.72;5034520;28;20037;-82
2022/12/24 08:51:27;;;;;;;16.95;3.53;;;;;;;8.42;96.42;101028.25;5034611;28;20029;-81
2022/12/24 08:53:52;;;;;;;14.00;3.20;;;;;;;8.45;96.35;101042.91;5033333;28;20079;-82
2022/12/24 08:56:17;;;;;;;15.35;3.55;;;;;;;8.46;96.49;101044.63;5033174;28;20374;-81
2022/12/24 08:58:43;;;;;;;21.88;3.80;;;;;;;8.47;96.47;101051.50;5026633;28;20061;-82
2022/12/24 09:01:17;;;;;;;19.85;3.75;;;;;;;8.49;96.71;101052.38;5014149;28;20026;-82
2022/12/24 09:03:42;;;;;;;17.33;3.60;;;;;;;8.50;96.72;101060.13;5034092;28;20029;-81
2022/12/24 09:06:08;;;;;;;20.02;3.45;;;;;;;8.53;96.80;101067.03;5033110;28;20366;-81
2022/12/24 09:08:34;;;;;;;22.30;4.18;;;;;;;8.54;96.92;101071.31;5030027;28;20026;-81
2022/12/24 09:11:08;;;;;;;13.43;2.80;;;;;;;8.57;96.71;101071.28;5033886;28;20071;-82
2022/12/24 09:13:33;;;;;;;21.60;3.50;;;;;;;8.60;96.90;101073.00;5033923;28;20029;-81
2022/12/24 09:15:59;;;;;;;13.27;3.50;;;;;;;8.61;96.59;101080.75;5031643;28;20396;-82
2022/12/24 09:18:24;;;;;;;15.93;3.45;;;;;;;8.63;96.58;101078.09;5031355;28;20033;-82
2022/12/24 09:20:50;;;;;;;16.85;3.65;;;;;;;8.67;96.51;101084.13;5031662;28;20037;-81
2022/12/24 09:23:15;;;;;;;17.48;3.83;;;;;;;8.69;96.50;101075.44;5026134;28;20086;-82
2022/12/24 09:25:41;;;;;;;18.23;3.80;;;;;;;8.73;96.77;101089.22;5028160;28;20500;-80
2022/12/24 09:28:06;;;;;;;21.63;4.47;;;;;;;8.78;96.48;101097.78;5031438;28;20120;-82
2022/12/24 09:30:32;;;;;;;20.77;4.32;;;;;;;8.80;96.45;101102.06;5036793;28;20484;-81
2022/12/24 09:32:57;;;;;;;21.27;3.75;;;;;;;8.86;96.65;101115.84;5028846;28;20026;-81
2022/12/24 09:35:22;;;;;;;20.60;4.32;;;;;;;8.91;96.41;101107.13;5026055;28;20041;-81
2022/12/24 09:38:01;;;;;;;20.38;4.53;;;;;;;8.99;96.34;101113.94;5033282;28;20034;-81
2022/12/24 09:40:32;;;;;;;20.13;3.80;;;;;;;9.02;96.42;101116.50;5031815;28;20025;-80
2022/12/24 09:42:59;;;;;;;18.70;3.72;;;;;;;9.03;96.10;101113.03;5029094;28;20033;-80
2022/12/24 09:45:35;;;;;;;20.00;4.32;;;;;;;9.04;96.02;101125.13;5034278;28;20024;-81
2022/12/24 09:48:27;;;;;;;18.75;3.83;;;;;;;9.07;96.18;101125.94;5034748;28;20025;-81
2022/12/24 09:50:58;;;;;;;20.00;4.03;;;;;;;9.09;96.18;101133.69;5036895;28;20021;-81
2022/12/24 09:53:50;;;;;;;17.02;3.72;;;;;;;9.12;95.98;101123.25;5031665;28;20476;-81
2022/12/24 09:56:23;;;;;;;16.05;3.38;;;;;;;9.16;95.90;101129.25;5022040;28;20059;-81
2022/12/24 09:58:59;;;;;;;17.90;4.05;;;;;;;9.18;95.85;101128.38;5031290;28;20025;-81
2022/12/24 10:01:24;;;;;;;23.00;3.97;;;;;;;9.21;95.88;101138.72;5029826;28;20025;-80
2022/12/24 10:03:50;;;;;;;21.02;4.00;;;;;;;9.25;95.70;101140.34;5027182;28;20036;-80
2022/12/24 10:06:23;;;;;;;19.48;4.10;;;;;;;9.27;95.62;101146.38;5027052;28;20369;-81
2022/12/24 10:09:09;;;;;;;18.75;3.78;;;;;;;9.33;95.72;101147.19;5030154;28;20021;-81
2022/12/24 10:11:45;;;;;;;19.02;4.05;;;;;;;9.37;95.27;101151.44;5030297;28;20022;-81
2022/12/24 10:14:41;;;;;;;20.05;4.55;;;;;;;9.39;95.02;101154.88;5024184;28;20144;-81
2022/12/24 10:17:17;;;;;;;18.40;4.10;;;;;;;9.39;94.93;101153.13;5028172;28;20037;-81
2022/12/24 10:20:05;;;;;;;22.55;4.05;;;;;;;9.42;95.02;101152.22;5031558;28;20404;-81
2022/12/24 10:22:54;;;;;;;21.85;4.50;;;;;;;9.42;94.65;101141.81;5029553;28;20029;-81
2022/12/24 10:25:29;;;;;;;19.17;4.40;;;;;;;9.44;94.48;101142.66;5031403;28;20507;-82
2022/12/24 10:27:58;;;;;;;22.15;4.47;;;;;;;9.43;94.42;101148.72;5029985;28;20030;-81
2022/12/24 10:30:24;;;;;;;23.08;4.60;;;;;;;9.42;94.48;101139.22;5029169;28;20033;-82
2022/12/24 10:32:52;;;;;;;16.48;4.05;;;;;;;9.40;94.52;101135.78;5029817;28;20021;-81
2022/12/24 10:35:33;;;;;;;23.20;4.75;;;;;;;9.40;94.37;101135.78;5028417;28;20119;-81
2022/12/24 10:37:59;;;;;;;16.60;3.97;;;;;;;9.39;94.25;101141.91;5023569;28;20037;-81
2022/12/24 10:40:52;;;;;;;17.05;4.10;;;;;;;9.38;94.46;101146.22;5024973;28;20021;-81
2022/12/24 10:43:23;;;;;;;17.42;4.03;;;;;;;9.38;94.34;101145.38;5022247;28;20050;-80
2022/12/24 10:45:56;;;;;;;23.90;5.05;;;;;;;9.39;94.30;101150.53;5023360;28;20071;-80
2022/12/24 10:48:31;;;;;;;20.75;5.28;;;;;;;9.43;94.33;101158.28;5026099;28;20052;-81
2022/12/24 10:51:01;;;;;;;18.60;4.60;;;;;;;9.48;94.53;101157.31;5027667;28;20389;-81
2022/12/24 10:53:32;;;;;;;21.70;4.80;;;;;;;9.55;94.18;101164.13;5024783;28;20029;-80
2022/12/24 10:56:10;;;;;;;25.30;4.50;;;;;;;9.63;93.95;101153.63;5023775;28;20130;-81
2022/12/24 10:58:41;;;;;;;22.30;5.15;;;;;;;9.66;94.02;101156.13;5022747;28;20029;-81
2022/12/24 11:01:06;;;;;;;17.52;4.00;;;;;;;9.73;93.69;101154.31;5020353;28;20076;-81
2022/12/24 11:03:34;;;;;;;19.88;4.68;;;;;;;9.83;93.42;101148.06;5024719;28;20480;-81
2022/12/24 11:06:06;;;;;;;16.23;4.30;;;;;;;9.91;93.28;101165.25;5023639;28;20059;-81
2022/12/24 11:08:33;;;;;;;21.98;4.10;;;;;;;9.93;92.96;101155.69;5023916;28;20423;-80
2022/12/24 11:11:02;;;;;;;23.52;4.70;;;;;;;9.93;92.54;101159.16;5025026;28;20026;-80
2022/12/24 11:13:29;;;;;;;19.92;4.57;;;;;;;9.92;92.23;101162.63;5024241;28;20482;-81
2022/12/24 11:16:00;;;;;;;26.58;5.72;;;;;;;9.90;92.24;101154.00;5023743;28;20029;-81
2022/12/24 11:18:26;;;;;;;21.95;3.97;;;;;;;9.91;92.17;101166.13;5023234;28;20034;-81
2022/12/24 11:20:52;;;;;;;20.55;5.13;;;;;;;9.94;92.14;101168.66;5022025;28;20345;-81
2022/12/24 11:23:17;;;;;;;17.15;4.38;;;;;;;9.96;91.47;101158.25;5021855;28;20030;-81
2022/12/24 11:25:48;;;;;;;18.58;4.45;;;;;;;9.99;91.43;101159.03;5024214;28;20032;-81
2022/12/24 11:28:26;;;;;;;15.80;4.50;;;;;;;10.05;91.75;101162.41;5021996;28;20072;-83
2022/12/24 11:31:04;;;;;;;21.50;4.50;;;;;;;10.11;91.68;101167.50;5022088;28;20130;-81
2022/12/24 11:33:31;;;;;;;16.90;3.90;;;;;;;10.16;91.11;101171.72;5024486;28;20033;-82
2022/12/24 11:36:02;;;;;;;18.45;4.28;;;;;;;10.18;90.92;101164.75;5023022;28;20573;-82
2022/12/24 11:38:30;;;;;;;20.65;5.22;;;;;;;10.23;90.62;101171.63;5025406;28;20037;-81
2022/12/24 11:41:10;;;;;;;18.25;4.20;;;;;;;10.29;90.14;101176.69;5028544;28;20558;-81